Time;durP1;ratioP1;P1;durP2;ratioP2;P2;SDS_P1;SDS_P2;PMS_P1;PMS_P2;Temp;Humidity;BMP_temperature;BMP_pressure;BME280_temperature;BME280_humidity;BME280_pressure;Samples;Min_cycle;Max_cycle;Signal;HPM_P1;HPM_P2
2022/04/03 02:53:47;;;;;;;14.40;11.95;;;;;;;0.31;100.00;99575.94;6539764;27;20087;-85
2022/04/03 02:56:50;;;;;;;15.93;12.18;;;;;;;0.21;100.00;99570.59;6578897;27;34612;-84
2022/04/03 02:59:52;;;;;;;15.82;12.25;;;;;;;0.18;100.00;99575.34;6579309;27;33962;-84
2022/04/03 03:02:56;;;;;;;15.02;12.52;;;;;;;0.14;100.00;99580.03;6578976;27;33913;-84
2022/04/03 03:05:58;;;;;;;15.75;12.68;;;;;;;0.13;100.00;99583.66;6578763;27;34119;-84
2022/04/03 03:09:01;;;;;;;16.48;13.23;;;;;;;0.11;100.00;99587.41;6579143;27;35427;-84
2022/04/03 03:12:05;;;;;;;16.98;13.80;;;;;;;0.09;100.00;99589.31;6581078;27;34118;-84
2022/04/03 03:15:10;;;;;;;18.00;13.90;;;;;;;0.01;100.00;99591.81;6579981;27;34196;-87
2022/04/03 03:18:13;;;;;;;16.95;13.27;;;;;;;0.06;100.00;99598.38;6579885;27;34581;-88
2022/04/03 03:21:16;;;;;;;17.90;14.00;;;;;;;0.09;100.00;99607.84;6579194;27;34254;-89
2022/04/03 03:24:18;;;;;;;19.10;14.73;;;;;;;-0.03;100.00;99604.44;6579125;27;34156;-89
2022/04/03 03:27:21;;;;;;;18.90;13.85;;;;;;;-0.01;100.00;99607.78;6579096;27;34385;-85
2022/04/03 03:30:24;;;;;;;20.60;15.63;;;;;;;-0.04;100.00;99610.69;6579070;27;34097;-85
2022/04/03 03:33:28;;;;;;;19.37;15.25;;;;;;;-0.04;100.00;99622.13;6579277;27;33826;-84
2022/04/03 03:36:30;;;;;;;17.67;13.70;;;;;;;-0.05;100.00;99624.91;6578576;27;34096;-85
2022/04/03 03:39:34;;;;;;;19.48;15.50;;;;;;;-0.03;100.00;99630.88;6578719;27;33509;-85
2022/04/03 03:42:40;;;;;;;19.55;15.35;;;;;;;0.01;100.00;99627.03;6578446;27;34111;-85
2022/04/03 03:45:43;;;;;;;19.20;15.10;;;;;;;0.00;100.00;99633.31;6588591;27;34336;-85
2022/04/03 03:48:46;;;;;;;18.85;15.05;;;;;;;0.01;100.00;99626.22;6587700;27;34028;-85
2022/04/03 03:51:49;;;;;;;18.50;14.10;;;;;;;0.00;100.00;99635.97;6579419;27;35046;-84
2022/04/03 03:54:52;;;;;;;17.77;14.32;;;;;;;0.08;100.00;99638.78;6578151;27;33784;-85
2022/04/03 03:57:55;;;;;;;17.73;13.40;;;;;;;0.08;100.00;99646.72;6577936;27;34019;-85
2022/04/03 04:00:58;;;;;;;19.65;15.25;;;;;;;0.05;100.00;99657.56;6579395;27;35388;-85
2022/04/03 04:04:02;;;;;;;19.25;14.93;;;;;;;0.08;100.00;99659.94;6579440;27;35100;-85
2022/04/03 04:07:04;;;;;;;17.83;14.13;;;;;;;0.09;100.00;99661.66;6580818;27;34699;-85
2022/04/03 04:10:09;;;;;;;19.12;14.10;;;;;;;0.16;100.00;99661.97;6578395;27;33951;-85
2022/04/03 04:13:12;;;;;;;17.87;14.23;;;;;;;0.15;100.00;99668.22;6578746;27;34017;-85
2022/04/03 04:16:15;;;;;;;19.45;14.60;;;;;;;0.18;100.00;99675.91;6578748;27;34514;-85
2022/04/03 04:19:18;;;;;;;18.95;14.70;;;;;;;0.17;100.00;99677.69;6578854;27;34928;-85
2022/04/03 04:22:21;;;;;;;17.70;14.57;;;;;;;0.22;100.00;99686.09;6578862;27;34802;-85
2022/04/03 04:25:24;;;;;;;19.55;14.75;;;;;;;0.12;100.00;99679.91;6578716;27;33730;-85
2022/04/03 04:28:27;;;;;;;18.48;14.00;;;;;;;0.13;100.00;99684.22;6578543;27;34776;-85
2022/04/03 04:31:30;;;;;;;18.33;14.07;;;;;;;0.31;100.00;99691.59;6578995;27;33621;-85
2022/04/03 04:34:33;;;;;;;18.30;14.73;;;;;;;0.29;100.00;99696.16;6579006;27;34082;-85
2022/04/03 04:37:36;;;;;;;17.40;13.75;;;;;;;0.21;100.00;99697.66;6578428;27;34561;-85
2022/04/03 04:40:39;;;;;;;17.35;13.40;;;;;;;0.29;100.00;99710.25;6578895;27;34075;-85
2022/04/03 04:43:42;;;;;;;16.60;13.55;;;;;;;0.37;100.00;99714.91;6579238;27;34784;-84
2022/04/03 04:46:45;;;;;;;17.17;13.80;;;;;;;0.41;100.00;99718.97;6581145;27;34022;-85
2022/04/03 04:49:48;;;;;;;15.52;11.88;;;;;;;0.42;100.00;99721.50;6580914;27;34022;-85
2022/04/03 04:52:50;;;;;;;14.27;11.98;;;;;;;0.48;100.00;99730.72;6582033;26;33607;-86
2022/04/03 04:55:54;;;;;;;16.40;12.95;;;;;;;0.54;100.00;99735.50;6582087;27;33680;-86
2022/04/03 04:58:57;;;;;;;16.77;12.85;;;;;;;0.50;100.00;99733.22;6579321;27;34618;-85
2022/04/03 05:01:59;;;;;;;16.35;12.88;;;;;;;0.53;100.00;99741.78;6579382;27;33535;-85
2022/04/03 05:05:05;;;;;;;16.15;12.75;;;;;;;0.51;100.00;99749.00;6592633;27;35519;-86
2022/04/03 05:08:08;;;;;;;17.90;13.50;;;;;;;0.58;100.00;99749.31;6587953;27;34004;-86
2022/04/03 05:11:13;;;;;;;15.95;13.18;;;;;;;0.66;100.00;99753.00;6579363;27;35512;-86
2022/04/03 05:14:18;;;;;;;17.20;13.23;;;;;;;0.64;100.00;99754.97;6579578;27;34776;-86
2022/04/03 05:17:21;;;;;;;17.10;13.05;;;;;;;0.64;100.00;99756.75;6580466;27;34028;-85
2022/04/03 05:20:24;;;;;;;16.87;13.40;;;;;;;0.68;100.00;99766.13;6580124;27;34104;-86
2022/04/03 05:23:27;;;;;;;15.23;12.93;;;;;;;0.64;100.00;99768.22;6579139;27;34831;-86
2022/04/03 05:26:30;;;;;;;16.23;13.50;;;;;;;0.77;100.00;99767.16;6581199;27;34868;-86
2022/04/03 05:29:35;;;;;;;15.52;12.75;;;;;;;0.73;100.00;99771.87;6580540;27;34927;-86
2022/04/03 05:32:39;;;;;;;18.23;13.57;;;;;;;0.77;100.00;99769.81;6580401;27;34726;-90
2022/04/03 05:35:42;;;;;;;14.82;12.98;;;;;;;0.85;100.00;99780.63;6580805;27;34175;-90
2022/04/03 05:38:45;;;;;;;16.08;13.25;;;;;;;0.84;100.00;99785.03;6580550;27;33628;-91
2022/04/03 05:41:50;;;;;;;15.43;12.35;;;;;;;0.87;100.00;99783.94;6580393;27;34117;-90
2022/04/03 05:44:52;;;;;;;16.10;12.82;;;;;;;0.87;100.00;99791.91;6576663;27;139243;-86
2022/04/03 05:47:55;;;;;;;13.18;10.85;;;;;;;0.93;100.00;99796.69;6584151;27;36110;-87
2022/04/03 05:50:58;;;;;;;13.40;10.32;;;;;;;1.07;100.00;99804.28;6586960;27;34712;-86
2022/04/03 05:54:01;;;;;;;12.35;10.27;;;;;;;1.23;100.00;99809.13;6589853;26;34336;-86
2022/04/03 05:57:04;;;;;;;11.80;9.60;;;;;;;1.26;100.00;99811.53;6580539;27;34260;-85
2022/04/03 06:00:12;;;;;;;10.88;9.13;;;;;;;1.35;100.00;99813.38;6579192;27;34014;-86
2022/04/03 06:03:15;;;;;;;11.45;8.85;;;;;;;1.32;100.00;99816.28;6580569;27;34485;-86
2022/04/03 06:06:18;;;;;;;10.60;8.55;;;;;;;1.46;100.00;99823.03;6581257;27;34470;-86
2022/04/03 06:09:21;;;;;;;9.00;7.97;;;;;;;1.47;100.00;99823.91;6581151;27;33881;-86
2022/04/03 06:12:24;;;;;;;8.75;7.85;;;;;;;1.45;100.00;99825.84;6580106;27;33942;-86
2022/04/03 06:15:38;;;;;;;8.38;7.22;;;;;;;1.39;100.00;99826.37;6582991;27;34567;-86
2022/04/03 06:18:41;;;;;;;8.13;7.28;;;;;;;1.51;100.00;99834.09;6590350;27;34149;-86
2022/04/03 06:21:44;;;;;;;10.93;8.20;;;;;;;1.59;100.00;99836.09;6593953;27;34016;-86
2022/04/03 06:24:47;;;;;;;9.15;8.18;;;;;;;1.58;100.00;99835.25;6597143;27;34278;-86
2022/04/03 06:27:52;;;;;;;9.82;8.18;;;;;;;1.69;100.00;99834.28;6597599;27;35408;-86
2022/04/03 06:30:56;;;;;;;8.70;7.78;;;;;;;1.69;100.00;99849.37;6594916;26;34858;-86
2022/04/03 06:34:02;;;;;;;11.27;9.20;;;;;;;1.70;100.00;99846.63;6593713;27;34490;-86
2022/04/03 06:37:05;;;;;;;10.68;9.50;;;;;;;1.54;100.00;99854.22;6592567;26;35169;-86
2022/04/03 06:40:09;;;;;;;9.52;8.32;;;;;;;1.69;100.00;99854.69;6582302;27;34515;-86
2022/04/03 06:43:12;;;;;;;9.95;8.93;;;;;;;1.77;100.00;99863.66;6581107;27;34175;-86
2022/04/03 06:46:15;;;;;;;10.55;9.27;;;;;;;1.83;100.00;99872.91;6580692;27;34699;-86
2022/04/03 06:49:17;;;;;;;11.48;9.82;;;;;;;1.77;100.00;99878.75;6580511;27;33933;-86
2022/04/03 06:52:20;;;;;;;12.60;10.18;;;;;;;1.75;100.00;99875.38;6580978;27;34048;-86
2022/04/03 06:55:28;;;;;;;12.70;10.77;;;;;;;1.91;100.00;99882.88;6580234;27;35395;-86
2022/04/03 06:58:31;;;;;;;13.82;10.98;;;;;;;1.86;100.00;99885.91;6579399;27;34116;-86
2022/04/03 07:01:34;;;;;;;13.38;11.93;;;;;;;1.80;100.00;99895.25;6578189;27;34097;-87
2022/04/03 07:04:37;;;;;;;15.27;12.68;;;;;;;1.76;100.00;99896.50;6581911;27;34893;-86
2022/04/03 07:07:40;;;;;;;15.25;12.60;;;;;;;1.84;100.00;99900.28;6582334;27;34401;-86
2022/04/03 07:10:43;;;;;;;16.52;13.20;;;;;;;1.83;100.00;99903.91;6579412;27;34238;-86
2022/04/03 07:13:46;;;;;;;17.33;14.20;;;;;;;1.86;100.00;99906.31;6579026;27;34125;-85
2022/04/03 07:16:52;;;;;;;16.70;13.77;;;;;;;1.83;100.00;99917.19;6578982;27;34595;-86
2022/04/03 07:19:55;;;;;;;17.35;14.35;;;;;;;1.93;100.00;99924.22;6581384;27;33997;-86
2022/04/03 07:22:58;;;;;;;17.98;14.10;;;;;;;2.10;100.00;99932.53;6584798;27;33872;-86
2022/04/03 07:26:01;;;;;;;18.73;14.90;;;;;;;2.13;100.00;99934.91;6584580;27;33916;-86
2022/04/03 07:29:04;;;;;;;19.30;15.38;;;;;;;2.08;100.00;99937.97;6581826;27;35374;-87
2022/04/03 07:32:07;;;;;;;19.60;15.63;;;;;;;2.11;100.00;99940.37;6580225;27;34108;-87
2022/04/03 07:35:12;;;;;;;19.30;16.45;;;;;;;2.31;100.00;99945.72;6579386;27;34979;-86
2022/04/03 07:38:15;;;;;;;21.30;15.70;;;;;;;2.43;100.00;99958.78;6579624;27;34415;-91
2022/04/03 07:41:19;;;;;;;20.20;16.25;;;;;;;2.32;100.00;99958.88;6580515;27;34191;-91
2022/04/03 07:44:22;;;;;;;18.37;14.87;;;;;;;2.17;100.00;99970.84;6579074;27;34639;-91
2022/04/03 07:47:26;;;;;;;20.05;16.08;;;;;;;2.40;100.00;99972.34;6579730;27;34060;-87
2022/04/03 07:50:29;;;;;;;17.35;14.52;;;;;;;2.38;100.00;99979.59;6579348;27;34982;-87
2022/04/03 07:53:32;;;;;;;18.42;15.20;;;;;;;2.30;100.00;99986.56;6579077;27;33934;-87
2022/04/03 07:56:35;;;;;;;21.15;16.33;;;;;;;2.29;100.00;99984.88;6579570;27;33806;-87
2022/04/03 07:59:38;;;;;;;25.02;19.33;;;;;;;2.50;100.00;99996.25;6580269;27;33984;-87
2022/04/03 08:02:42;;;;;;;27.95;19.35;;;;;;;2.54;100.00;100002.13;6580009;27;33983;-87
2022/04/03 08:05:45;;;;;;;25.50;20.45;;;;;;;2.56;100.00;100009.00;6579372;27;34958;-87
2022/04/03 08:08:48;;;;;;;26.98;21.92;;;;;;;2.65;100.00;100010.00;6579440;27;33975;-87
2022/04/03 08:11:57;;;;;;;31.60;22.77;;;;;;;2.61;100.00;100012.09;6578731;27;34035;-86
2022/04/03 08:15:00;;;;;;;32.03;24.40;;;;;;;2.90;100.00;100014.00;6579239;27;33998;-87
2022/04/03 08:18:05;;;;;;;29.00;23.12;;;;;;;2.99;100.00;100007.00;6578666;27;34164;-87
2022/04/03 08:21:08;;;;;;;31.85;25.40;;;;;;;2.99;100.00;100015.81;6579742;27;34927;-87
2022/04/03 08:24:11;;;;;;;36.88;27.95;;;;;;;3.01;100.00;100024.47;6579086;27;33954;-87
2022/04/03 08:27:14;;;;;;;34.45;26.20;;;;;;;2.97;100.00;100019.59;6578698;27;34407;-86
2022/04/03 08:30:26;;;;;;;31.95;23.58;;;;;;;2.88;100.00;100022.09;6578753;27;34826;-87
2022/04/03 08:33:29;;;;;;;35.28;24.10;;;;;;;2.84;98.26;100030.50;6580285;27;34107;-87
2022/04/03 08:36:32;;;;;;;33.42;24.02;;;;;;;2.66;100.00;100025.84;6578581;27;33872;-87
2022/04/03 08:39:35;;;;;;;33.95;24.55;;;;;;;2.71;99.47;100026.25;6582052;27;34833;-85
2022/04/03 08:42:40;;;;;;;31.58;22.70;;;;;;;2.78;99.85;100025.69;6584173;26;34819;-85
2022/04/03 08:45:43;;;;;;;30.25;23.38;;;;;;;3.02;99.01;100022.69;6599076;26;35064;-85
2022/04/03 08:48:46;;;;;;;30.95;22.90;;;;;;;3.18;97.58;100025.62;6597796;26;35243;-85
2022/04/03 08:51:50;;;;;;;32.00;22.80;;;;;;;3.40;96.13;100038.66;6592352;27;34167;-85
2022/04/03 08:54:53;;;;;;;34.95;21.25;;;;;;;3.41;96.68;100040.34;6580214;27;34124;-85
2022/04/03 08:57:57;;;;;;;35.35;22.55;;;;;;;3.33;92.25;100045.50;6579417;27;35142;-85
2022/04/03 09:01:01;;;;;;;27.60;19.58;;;;;;;3.39;90.25;100044.97;6579124;27;34298;-85
2022/04/03 09:04:05;;;;;;;32.63;21.90;;;;;;;3.62;89.75;100048.16;6583877;27;34438;-85
2022/04/03 09:07:16;;;;;;;27.10;19.95;;;;;;;3.71;90.11;100058.94;6591123;27;34485;-85
2022/04/03 09:10:19;;;;;;;;;;;;;;;3.97;86.72;100057.37;6587999;27;34836;-85
2022/04/03 09:13:24;;;;;;;25.80;19.15;;;;;;;4.20;83.99;100060.53;6578304;27;34562;-85
2022/04/03 09:16:40;;;;;;;30.83;18.80;;;;;;;4.49;84.33;100070.28;6577910;27;34122;-85
2022/04/03 09:19:44;;;;;;;27.58;16.85;;;;;;;4.47;85.00;100067.75;6578777;27;35033;-85
2022/04/03 09:23:01;;;;;;;24.12;15.50;;;;;;;4.50;82.79;100071.94;6577477;27;34652;-85
2022/04/03 09:26:18;;;;;;;21.60;14.35;;;;;;;4.52;81.08;100070.81;6578088;27;34398;-86
2022/04/03 09:29:21;;;;;;;21.95;13.35;;;;;;;4.40;81.87;100079.97;6579321;27;34318;-86
2022/04/03 09:32:27;;;;;;;25.27;15.18;;;;;;;4.39;80.15;100080.97;6578820;27;34485;-86
2022/04/03 09:35:32;;;;;;;23.83;13.75;;;;;;;4.54;80.17;100089.34;6578332;27;33968;-86
2022/04/03 09:38:35;;;;;;;20.58;12.37;;;;;;;4.82;77.98;100076.84;6578075;27;34173;-85
2022/04/03 09:42:03;;;;;;;22.33;13.23;;;;;;;5.12;78.68;100089.06;6577417;27;34395;-85
2022/04/03 09:45:23;;;;;;;31.70;13.00;;;;;;;5.07;74.81;100078.00;6578619;27;35496;-85
2022/04/03 09:48:39;;;;;;;22.20;13.02;;;;;;;5.17;75.71;100091.25;6580657;27;34364;-85
2022/04/03 09:51:42;;;;;;;22.75;13.45;;;;;;;5.12;73.83;100085.53;6584104;27;34710;-85
2022/04/03 09:54:45;;;;;;;22.65;13.57;;;;;;;5.25;73.27;100093.19;6580019;27;34446;-85
2022/04/03 09:58:00;;;;;;;20.85;13.50;;;;;;;5.30;72.50;100096.25;6577017;27;34846;-86
2022/04/03 10:01:40;;;;;;;20.95;13.20;;;;;;;5.28;71.68;100099.06;6577462;27;34351;-85
2022/04/03 10:04:47;;;;;;;27.05;13.68;;;;;;;5.43;75.32;100089.53;6578228;27;34529;-89
2022/04/03 10:07:50;;;;;;;24.12;12.85;;;;;;;5.58;72.27;100086.34;6577847;27;34086;-91
2022/04/03 10:10:54;;;;;;;18.23;11.50;;;;;;;5.75;71.32;100087.34;6577521;27;34752;-86
2022/04/03 10:13:58;;;;;;;19.25;12.27;;;;;;;6.00;69.54;100088.41;6578325;27;34306;-86
2022/04/03 10:17:02;;;;;;;18.90;11.70;;;;;;;6.03;68.65;100093.44;6577375;27;33953;-86
2022/04/03 10:20:06;;;;;;;19.40;11.82;;;;;;;5.83;66.52;100084.72;6578007;27;34509;-86
2022/04/03 10:23:12;;;;;;;19.95;11.07;;;;;;;5.81;67.27;100092.06;6577679;27;34591;-86
2022/04/03 10:26:18;;;;;;;17.45;10.38;;;;;;;6.17;66.02;100087.50;6578408;27;34074;-86
2022/04/03 10:29:22;;;;;;;20.88;11.12;;;;;;;6.25;67.17;100097.44;6579743;27;34554;-87
2022/04/03 10:32:30;;;;;;;19.15;10.55;;;;;;;6.16;65.22;100101.87;6586191;26;34025;-86
2022/04/03 10:35:36;;;;;;;20.37;10.90;;;;;;;6.34;62.86;100096.47;6593565;27;33679;-87
2022/04/03 10:38:43;;;;;;;17.40;10.70;;;;;;;6.08;63.98;100116.03;6591456;27;35195;-87
2022/04/03 10:41:46;;;;;;;17.62;10.35;;;;;;;5.94;63.46;100113.91;6579260;27;34183;-87
2022/04/03 10:45:11;;;;;;;18.45;10.45;;;;;;;6.43;63.40;100114.25;6577854;27;34728;-87
2022/04/03 10:48:20;;;;;;;18.33;11.15;;;;;;;6.89;65.05;100112.16;6579811;27;36074;-87
2022/04/03 10:51:24;;;;;;;16.90;10.63;;;;;;;7.13;59.27;100126.66;6578755;27;34108;-87
2022/04/03 10:54:31;;;;;;;16.48;10.90;;;;;;;7.42;58.57;100112.84;6582607;27;34165;-86
2022/04/03 10:57:46;;;;;;;18.80;10.98;;;;;;;7.83;56.35;100116.41;6578613;27;34564;-87
2022/04/03 11:00:50;;;;;;;16.95;10.48;;;;;;;7.24;58.73;100123.69;6579071;27;34215;-87
2022/04/03 11:04:00;;;;;;;19.80;10.85;;;;;;;7.49;55.76;100124.59;6578319;27;33725;-87
2022/04/03 11:07:13;;;;;;;14.48;9.95;;;;;;;7.46;57.32;100131.13;6579695;27;34021;-86
2022/04/03 11:10:52;;;;;;;16.37;10.13;;;;;;;7.52;56.50;100123.41;6578631;27;33708;-87
2022/04/03 11:13:55;;;;;;;16.53;9.90;;;;;;;7.81;54.18;100130.97;6578850;27;34453;-87
2022/04/03 11:16:58;;;;;;;17.20;10.45;;;;;;;7.94;54.04;100142.91;6580258;27;33887;-87
2022/04/03 11:20:02;;;;;;;17.08;10.55;;;;;;;7.69;54.64;100143.88;6580266;27;34221;-87
2022/04/03 11:23:08;;;;;;;16.42;9.55;;;;;;;7.42;55.06;100145.81;6579028;27;33701;-87
2022/04/03 11:26:11;;;;;;;17.37;8.77;;;;;;;8.03;52.53;100154.47;6578976;27;35183;-86
2022/04/03 11:29:15;;;;;;;15.82;9.57;;;;;;;7.67;51.29;100149.41;6578811;27;34003;-87
2022/04/03 11:32:19;;;;;;;18.58;10.73;;;;;;;7.88;51.49;100156.97;6579136;27;33726;-87
2022/04/03 11:35:36;;;;;;;17.87;9.55;;;;;;;8.08;50.67;100151.28;6579059;27;34841;-87
2022/04/03 11:38:40;;;;;;;17.70;10.30;;;;;;;8.04;52.43;100152.63;6579555;27;34081;-87
2022/04/03 11:41:51;;;;;;;18.12;10.80;;;;;;;8.40;51.58;100164.72;6580622;27;34352;-87
2022/04/03 11:44:54;;;;;;;17.12;11.48;;;;;;;8.17;50.95;100158.34;6579040;27;34104;-87
2022/04/03 11:48:13;;;;;;;18.80;11.82;;;;;;;8.58;49.21;100161.84;6582839;27;34044;-87
2022/04/03 11:51:19;;;;;;;;;;;;;;;9.24;47.98;100162.50;6582523;27;34233;-86
2022/04/03 11:54:25;;;;;;;15.27;10.50;;;;;;;9.29;47.24;100161.97;6579534;27;33904;-87
2022/04/03 11:57:28;;;;;;;16.20;10.88;;;;;;;8.43;47.73;100170.75;6578480;27;34261;-87
2022/04/03 12:00:32;;;;;;;16.33;10.07;;;;;;;8.54;48.06;100176.63;6579648;27;33894;-87
2022/04/03 12:03:39;;;;;;;14.40;10.00;;;;;;;9.67;46.92;100164.78;6578320;27;33992;-87
2022/04/03 12:06:47;;;;;;;17.85;10.68;;;;;;;10.85;45.83;100175.97;6581694;27;33796;-87
2022/04/03 12:09:51;;;;;;;13.43;9.23;;;;;;;11.75;41.90;100176.69;6584283;27;33762;-87
2022/04/03 12:12:57;;;;;;;14.82;9.95;;;;;;;10.88;41.39;100172.91;6579409;27;34076;-87
2022/04/03 12:16:00;;;;;;;12.90;9.07;;;;;;;9.86;43.95;100185.84;6578439;27;34608;-87
2022/04/03 12:19:04;;;;;;;16.10;9.55;;;;;;;9.81;43.43;100188.22;6579524;27;35088;-87
2022/04/03 12:22:10;;;;;;;15.10;9.77;;;;;;;10.05;42.69;100183.69;6578494;27;34133;-87
2022/04/03 12:25:13;;;;;;;16.75;10.90;;;;;;;9.51;43.96;100190.75;6579144;27;34307;-91
2022/04/03 12:28:20;;;;;;;15.70;10.20;;;;;;;9.30;45.54;100180.59;6579419;27;34288;-91
2022/04/03 12:31:30;;;;;;;15.93;10.38;;;;;;;10.19;43.83;100181.06;6580443;27;33835;-88
2022/04/03 12:34:40;;;;;;;13.40;9.30;;;;;;;10.42;41.00;100181.09;6579328;27;34346;-88
2022/04/03 12:37:43;;;;;;;14.82;10.30;;;;;;;10.33;42.24;100174.09;6579264;27;34063;-87
2022/04/03 12:40:46;;;;;;;14.27;9.13;;;;;;;11.37;40.82;100184.13;6579704;27;34787;-88
2022/04/03 12:43:49;;;;;;;12.65;9.48;;;;;;;12.88;37.14;100177.75;6584881;27;33870;-88
2022/04/03 12:46:52;;;;;;;12.80;9.32;;;;;;;14.20;34.49;100176.63;6582475;27;34420;-88
2022/04/03 12:50:10;;;;;;;15.40;9.00;;;;;;;15.48;33.26;100168.97;6581810;27;34600;-87
2022/04/03 12:53:16;;;;;;;11.45;8.70;;;;;;;15.05;33.54;100166.78;6578028;27;33763;-88
2022/04/03 12:58:24;;;;;;;13.57;9.48;;;;;;;15.75;34.91;100166.16;6578955;27;35447;-88
2022/04/03 12:59:49;;;;;;;14.87;9.70;;;;;;;17.04;29.89;100169.34;6575022;27;34491;-86
2022/04/03 13:02:54;;;;;;;11.43;8.32;;;;;;;15.05;32.67;100158.66;6575779;27;34641;-86
2022/04/03 13:06:09;;;;;;;13.20;9.05;;;;;;;14.83;32.21;100160.81;6577402;27;34759;-86
2022/04/03 13:09:12;;;;;;;13.48;9.48;;;;;;;16.82;29.74;100160.78;6577645;27;33910;-86
2022/04/03 13:12:26;;;;;;;12.63;9.55;;;;;;;15.63;29.90;100165.97;6578366;27;34981;-86
2022/04/03 13:15:29;;;;;;;13.23;9.98;;;;;;;13.93;35.17;100164.91;6578535;27;33986;-86
2022/04/03 13:18:32;;;;;;;14.68;9.35;;;;;;;12.73;36.78;100172.44;6578071;27;34335;-86
2022/04/03 13:21:36;;;;;;;13.35;9.73;;;;;;;11.26;38.27;100170.09;6575760;27;34400;-86
2022/04/03 13:24:40;;;;;;;14.48;10.25;;;;;;;10.72;38.65;100175.75;6578770;27;34817;-86
2022/04/03 13:27:43;;;;;;;13.07;9.85;;;;;;;10.55;38.63;100175.06;6579407;27;34769;-87
2022/04/03 13:30:50;;;;;;;12.95;9.90;;;;;;;9.80;39.54;100169.56;6579633;27;34956;-87
2022/04/03 13:33:54;;;;;;;13.48;9.38;;;;;;;9.60;40.98;100172.72;6577627;27;34085;-90
2022/04/03 13:36:58;;;;;;;14.55;9.30;;;;;;;10.54;38.06;100175.25;6577687;27;34796;-92
2022/04/03 13:40:01;;;;;;;14.27;9.48;;;;;;;11.18;36.66;100167.50;6578138;27;35146;-91
2022/04/03 13:43:09;;;;;;;13.35;9.88;;;;;;;11.18;37.26;100172.06;6578431;27;34101;-90
2022/04/03 13:46:13;;;;;;;14.40;9.88;;;;;;;11.25;38.77;100175.66;6574371;27;35345;-88
2022/04/03 13:49:17;;;;;;;14.40;10.10;;;;;;;10.98;38.48;100175.31;6576888;27;35261;-88
2022/04/03 13:52:20;;;;;;;13.85;9.27;;;;;;;11.26;38.26;100177.34;6581810;27;35413;-88
2022/04/03 13:55:23;;;;;;;11.95;9.55;;;;;;;11.62;34.88;100181.94;6578447;27;34221;-88
2022/04/03 13:58:26;;;;;;;11.32;9.40;;;;;;;11.99;34.57;100176.37;6577300;27;34827;-88
2022/04/03 14:01:30;;;;;;;12.65;9.82;;;;;;;10.86;37.73;100190.25;6577522;27;34186;-88
2022/04/03 14:04:33;;;;;;;12.80;9.45;;;;;;;10.58;39.15;100190.03;6577988;27;34643;-88
2022/04/03 14:07:36;;;;;;;13.23;8.85;;;;;;;11.88;35.08;100187.66;6577767;27;34493;-88
2022/04/03 14:10:39;;;;;;;12.05;9.93;;;;;;;13.30;33.13;100187.56;6579020;27;34111;-87
2022/04/03 14:13:42;;;;;;;11.02;8.63;;;;;;;13.41;33.42;100188.03;6582576;27;34079;-87
2022/04/03 14:16:45;;;;;;;11.88;9.25;;;;;;;13.03;32.29;100194.66;6579529;27;34428;-87
2022/04/03 14:19:49;;;;;;;10.25;8.75;;;;;;;13.89;32.66;100188.00;6579465;27;33953;-88
2022/04/03 14:22:52;;;;;;;12.77;9.30;;;;;;;13.28;32.25;100199.59;6581141;27;33749;-87
2022/04/03 14:25:54;;;;;;;12.73;9.75;;;;;;;12.22;34.28;100196.94;6595986;27;34412;-88
2022/04/03 14:28:58;;;;;;;13.80;9.57;;;;;;;11.19;37.14;100206.06;6597546;26;33792;-88
2022/04/03 14:32:00;;;;;;;13.45;9.52;;;;;;;9.75;40.20;100205.06;6591928;26;34274;-87
2022/04/03 14:35:04;;;;;;;13.32;9.32;;;;;;;8.91;40.08;100212.78;6579980;27;33916;-86
2022/04/03 14:38:07;;;;;;;12.73;9.70;;;;;;;9.42;40.73;100215.12;6580148;27;33597;-87
2022/04/03 14:41:13;;;;;;;14.38;9.98;;;;;;;9.04;39.17;100217.63;6580782;27;34025;-86
2022/04/03 14:44:15;;;;;;;14.63;9.85;;;;;;;8.84;39.68;100214.47;6581569;27;34717;-88
2022/04/03 14:47:18;;;;;;;13.90;9.65;;;;;;;8.11;43.14;100215.31;6579369;27;34628;-88
2022/04/03 14:50:22;;;;;;;12.20;8.13;;;;;;;7.80;45.54;100221.25;6581699;27;34480;-88
2022/04/03 14:53:26;;;;;;;14.63;9.50;;;;;;;7.56;44.12;100223.87;6579661;27;34035;-88
2022/04/03 14:56:28;;;;;;;15.02;9.48;;;;;;;7.69;42.77;100214.41;6580225;27;34703;-88
2022/04/03 14:59:31;;;;;;;13.27;8.88;;;;;;;7.68;42.03;100222.59;6580642;27;35209;-88
2022/04/03 15:02:35;;;;;;;12.73;9.82;;;;;;;7.61;42.65;100237.66;6581888;27;34033;-88
2022/04/03 15:05:39;;;;;;;12.25;9.63;;;;;;;7.30;44.36;100226.63;6584038;27;35109;-87
2022/04/03 15:08:42;;;;;;;11.82;8.25;;;;;;;7.11;47.52;100233.03;6581873;27;34997;-88
2022/04/03 15:11:45;;;;;;;12.82;8.63;;;;;;;6.93;46.14;100238.44;6579569;27;34066;-88
2022/04/03 15:14:48;;;;;;;14.90;8.73;;;;;;;6.68;46.16;100232.94;6579242;27;34572;-88
2022/04/03 15:17:51;;;;;;;12.23;8.32;;;;;;;6.72;46.86;100228.97;6578717;27;34085;-87
2022/04/03 15:20:55;;;;;;;12.85;8.80;;;;;;;6.52;45.35;100235.50;6579238;27;34116;-88
2022/04/03 15:24:04;;;;;;;13.15;9.02;;;;;;;6.59;45.13;100242.75;6578882;27;33596;-87
2022/04/03 15:27:07;;;;;;;14.60;8.65;;;;;;;6.66;46.45;100237.59;6579119;27;33742;-88
2022/04/03 15:30:11;;;;;;;13.07;8.13;;;;;;;6.74;47.77;100234.16;6579403;27;34675;-87
2022/04/03 15:33:14;;;;;;;12.27;8.52;;;;;;;6.68;45.90;100245.50;6579224;27;34804;-88
2022/04/03 15:36:19;;;;;;;13.82;8.43;;;;;;;6.61;45.35;100237.25;6579368;27;34045;-87
2022/04/03 15:39:22;;;;;;;15.57;8.55;;;;;;;6.49;46.25;100250.03;6578737;27;34717;-87
2022/04/03 15:42:25;;;;;;;12.18;8.45;;;;;;;6.24;45.42;100262.34;6580832;27;35534;-88
2022/04/03 15:45:29;;;;;;;13.35;8.98;;;;;;;6.30;47.16;100252.88;6583729;27;34278;-89
2022/04/03 15:48:32;;;;;;;15.65;9.80;;;;;;;6.29;45.55;100264.56;6581020;26;35336;-91
2022/04/03 15:51:35;;;;;;;15.35;9.43;;;;;;;6.09;44.79;100267.37;6585277;27;35019;-91
2022/04/03 15:54:38;;;;;;;12.90;9.30;;;;;;;6.03;48.14;100275.16;6580726;27;34017;-88
2022/04/03 15:57:41;;;;;;;12.98;9.50;;;;;;;5.97;45.47;100273.94;6579692;27;34658;-89
2022/04/03 16:00:44;;;;;;;17.52;9.93;;;;;;;5.88;46.15;100275.66;6581454;27;33846;-88
2022/04/03 16:03:48;;;;;;;14.82;9.88;;;;;;;5.98;48.49;100278.28;6578651;27;34894;-88
2022/04/03 16:06:51;;;;;;;12.07;9.95;;;;;;;5.82;48.09;100289.59;6579701;27;34107;-88
2022/04/03 16:09:55;;;;;;;15.68;10.23;;;;;;;5.81;46.76;100292.41;6579211;27;33688;-88
2022/04/03 16:13:00;;;;;;;13.73;10.07;;;;;;;5.51;48.56;100299.72;6578537;27;33946;-88
2022/04/03 16:16:04;;;;;;;16.20;11.52;;;;;;;5.34;48.82;100303.16;6581267;27;34155;-87
2022/04/03 16:19:07;;;;;;;15.80;11.18;;;;;;;5.11;47.26;100313.34;6586674;27;34210;-88
2022/04/03 16:22:11;;;;;;;16.92;11.65;;;;;;;4.98;49.17;100319.84;6579888;27;35198;-88
2022/04/03 16:25:16;;;;;;;14.07;11.43;;;;;;;4.88;50.86;100313.66;6578222;27;33826;-87
2022/04/03 16:28:22;;;;;;;15.23;11.45;;;;;;;4.71;47.79;100314.38;6578343;27;34071;-88
2022/04/03 16:31:25;;;;;;;16.37;11.15;;;;;;;4.58;48.79;100330.66;6578646;27;34743;-87
2022/04/03 16:34:30;;;;;;;14.68;11.98;;;;;;;4.51;48.36;100319.72;6579345;27;34197;-87
2022/04/03 16:37:34;;;;;;;16.12;11.55;;;;;;;4.41;50.40;100326.88;6577985;27;34825;-87
2022/04/03 16:40:44;;;;;;;16.10;11.18;;;;;;;4.36;49.38;100341.59;6579767;27;33691;-88
2022/04/03 16:43:47;;;;;;;14.52;11.32;;;;;;;4.28;50.45;100340.47;6578242;27;33932;-87
2022/04/03 16:46:50;;;;;;;15.10;11.12;;;;;;;4.22;51.31;100358.84;6589173;27;34649;-88
2022/04/03 16:49:53;;;;;;;14.65;11.50;;;;;;;4.22;50.23;100359.69;6585089;27;35017;-88
2022/04/03 16:52:57;;;;;;;16.27;12.02;;;;;;;4.09;51.53;100369.72;6579580;27;34193;-88
2022/04/03 16:56:01;;;;;;;19.23;12.10;;;;;;;4.03;51.98;100365.78;6578516;27;33939;-87
2022/04/03 16:59:06;;;;;;;14.93;11.12;;;;;;;3.99;50.46;100374.22;6578780;27;34705;-88
2022/04/03 17:02:08;;;;;;;15.88;11.15;;;;;;;3.91;51.42;100382.84;6578827;27;33779;-88
2022/04/03 17:05:12;;;;;;;14.80;10.82;;;;;;;3.85;52.06;100386.06;6579497;27;34752;-88